sensor_id;sensor_type;location;lat;lon;timestamp;temperature;humidity
7502;DHT22;3792;47.740;7.606;2023-03-31T00:01:40;13.50;99.90
7502;DHT22;3792;47.740;7.606;2023-03-31T00:04:07;13.40;99.90
7502;DHT22;3792;47.740;7.606;2023-03-31T00:06:39;13.40;99.90
7502;DHT22;3792;47.740;7.606;2023-03-31T00:09:08;13.50;99.90
7502;DHT22;3792;47.740;7.606;2023-03-31T00:11:35;13.70;99.90
7502;DHT22;3792;47.740;7.606;2023-03-31T00:14:04;13.90;99.90
7502;DHT22;3792;47.740;7.606;2023-03-31T00:16:33;13.90;99.90
7502;DHT22;3792;47.740;7.606;2023-03-31T00:19:00;14.00;99.90
7502;DHT22;3792;47.740;7.606;2023-03-31T00:21:28;14.00;99.90
7502;DHT22;3792;47.740;7.606;2023-03-31T00:24:00;14.00;99.90
7502;DHT22;3792;47.740;7.606;2023-03-31T00:26:27;14.00;99.90
7502;DHT22;3792;47.740;7.606;2023-03-31T00:28:55;13.90;99.90
7502;DHT22;3792;47.740;7.606;2023-03-31T00:31:22;13.90;99.90
7502;DHT22;3792;47.740;7.606;2023-03-31T00:33:51;13.90;99.90
7502;DHT22;3792;47.740;7.606;2023-03-31T00:36:19;13.80;99.90
7502;DHT22;3792;47.740;7.606;2023-03-31T00:38:51;13.70;99.90
7502;DHT22;3792;47.740;7.606;2023-03-31T00:41:19;13.60;99.90
7502;DHT22;3792;47.740;7.606;2023-03-31T00:44:06;13.60;99.90
7502;DHT22;3792;47.740;7.606;2023-03-31T00:46:39;13.50;99.90
7502;DHT22;3792;47.740;7.606;2023-03-31T00:49:13;13.50;99.90
7502;DHT22;3792;47.740;7.606;2023-03-31T00:51:43;13.50;99.90
7502;DHT22;3792;47.740;7.606;2023-03-31T00:54:10;13.40;99.90
7502;DHT22;3792;47.740;7.606;2023-03-31T00:56:41;13.20;99.90
7502;DHT22;3792;47.740;7.606;2023-03-31T00:59:10;13.10;99.90
7502;DHT22;3792;47.740;7.606;2023-03-31T01:01:39;12.90;99.90
7502;DHT22;3792;47.740;7.606;2023-03-31T01:04:10;12.90;99.90
7502;DHT22;3792;47.740;7.606;2023-03-31T01:06:43;12.80;99.90
7502;DHT22;3792;47.740;7.606;2023-03-31T01:09:15;12.80;99.90
7502;DHT22;3792;47.740;7.606;2023-03-31T01:11:43;12.80;99.90
7502;DHT22;3792;47.740;7.606;2023-03-31T01:14:11;12.70;99.90
7502;DHT22;3792;47.740;7.606;2023-03-31T01:16:38;12.70;99.90
7502;DHT22;3792;47.740;7.606;2023-03-31T01:19:15;12.70;99.90
7502;DHT22;3792;47.740;7.606;2023-03-31T01:22:16;12.70;99.90
7502;DHT22;3792;47.740;7.606;2023-03-31T01:25:13;12.60;99.90
7502;DHT22;3792;47.740;7.606;2023-03-31T01:28:04;12.60;99.90
7502;DHT22;3792;47.740;7.606;2023-03-31T01:31:20;12.60;99.90
7502;DHT22;3792;47.740;7.606;2023-03-31T01:34:25;12.50;99.90
7502;DHT22;3792;47.740;7.606;2023-03-31T01:37:35;12.40;99.90
7502;DHT22;3792;47.740;7.606;2023-03-31T01:40:25;12.50;99.90
7502;DHT22;3792;47.740;7.606;2023-03-31T01:43:00;12.30;99.90
7502;DHT22;3792;47.740;7.606;2023-03-31T01:45:38;12.30;99.90
7502;DHT22;3792;47.740;7.606;2023-03-31T01:48:12;12.30;99.90
7502;DHT22;3792;47.740;7.606;2023-03-31T01:50:45;12.20;99.90
7502;DHT22;3792;47.740;7.606;2023-03-31T01:53:17;12.30;99.90
7502;DHT22;3792;47.740;7.606;2023-03-31T01:55:51;12.20;99.90
7502;DHT22;3792;47.740;7.606;2023-03-31T01:58:25;12.10;99.90
7502;DHT22;3792;47.740;7.606;2023-03-31T02:00:59;12.00;99.90
7502;DHT22;3792;47.740;7.606;2023-03-31T02:03:32;11.90;99.90
7502;DHT22;3792;47.740;7.606;2023-03-31T02:06:05;11.90;99.90
7502;DHT22;3792;47.740;7.606;2023-03-31T02:08:37;11.90;99.90
7502;DHT22;3792;47.740;7.606;2023-03-31T02:11:07;11.90;99.90
7502;DHT22;3792;47.740;7.606;2023-03-31T02:13:35;11.90;99.90
7502;DHT22;3792;47.740;7.606;2023-03-31T02:16:07;11.90;99.90
7502;DHT22;3792;47.740;7.606;2023-03-31T02:18:37;11.80;99.90
7502;DHT22;3792;47.740;7.606;2023-03-31T02:21:07;11.60;99.90
7502;DHT22;3792;47.740;7.606;2023-03-31T02:23:36;11.70;99.90
7502;DHT22;3792;47.740;7.606;2023-03-31T02:26:09;11.70;99.90
7502;DHT22;3792;47.740;7.606;2023-03-31T02:28:38;11.70;99.90
7502;DHT22;3792;47.740;7.606;2023-03-31T02:31:15;11.80;99.90
7502;DHT22;3792;47.740;7.606;2023-03-31T02:33:45;11.90;99.90
7502;DHT22;3792;47.740;7.606;2023-03-31T02:36:12;11.80;99.90
7502;DHT22;3792;47.740;7.606;2023-03-31T02:38:43;11.80;99.90
7502;DHT22;3792;47.740;7.606;2023-03-31T02:41:13;11.80;99.90
7502;DHT22;3792;47.740;7.606;2023-03-31T02:43:40;11.80;99.90
7502;DHT22;3792;47.740;7.606;2023-03-31T02:46:07;11.90;99.90
7502;DHT22;3792;47.740;7.606;2023-03-31T02:48:38;11.90;99.90
7502;DHT22;3792;47.740;7.606;2023-03-31T02:54:26;11.90;99.90
7502;DHT22;3792;47.740;7.606;2023-03-31T02:57:18;11.90;99.90
7502;DHT22;3792;47.740;7.606;2023-03-31T02:59:56;12.00;99.90
7502;DHT22;3792;47.740;7.606;2023-03-31T03:02:35;12.00;99.90
7502;DHT22;3792;47.740;7.606;2023-03-31T03:05:15;12.00;99.90
7502;DHT22;3792;47.740;7.606;2023-03-31T03:07:49;12.00;99.90
7502;DHT22;3792;47.740;7.606;2023-03-31T03:10:27;12.10;99.90
7502;DHT22;3792;47.740;7.606;2023-03-31T03:13:05;12.30;99.90
7502;DHT22;3792;47.740;7.606;2023-03-31T03:15:36;12.30;99.90
7502;DHT22;3792;47.740;7.606;2023-03-31T03:18:05;12.30;99.90
7502;DHT22;3792;47.740;7.606;2023-03-31T03:20:32;12.30;99.90
7502;DHT22;3792;47.740;7.606;2023-03-31T03:23:00;12.30;99.90
7502;DHT22;3792;47.740;7.606;2023-03-31T03:25:27;12.30;99.90
7502;DHT22;3792;47.740;7.606;2023-03-31T03:27:55;12.30;99.90
7502;DHT22;3792;47.740;7.606;2023-03-31T03:30:23;12.30;99.90
7502;DHT22;3792;47.740;7.606;2023-03-31T03:32:50;12.40;99.90
7502;DHT22;3792;47.740;7.606;2023-03-31T03:35:19;12.30;99.90
7502;DHT22;3792;47.740;7.606;2023-03-31T03:37:46;12.30;99.90
7502;DHT22;3792;47.740;7.606;2023-03-31T03:40:13;12.40;99.90
7502;DHT22;3792;47.740;7.606;2023-03-31T03:42:40;12.50;99.90
7502;DHT22;3792;47.740;7.606;2023-03-31T03:45:08;12.50;99.90
7502;DHT22;3792;47.740;7.606;2023-03-31T03:47:36;12.60;99.90
7502;DHT22;3792;47.740;7.606;2023-03-31T03:50:04;12.60;99.90
7502;DHT22;3792;47.740;7.606;2023-03-31T03:52:31;12.70;99.90
7502;DHT22;3792;47.740;7.606;2023-03-31T03:54:58;12.70;99.90
7502;DHT22;3792;47.740;7.606;2023-03-31T03:57:26;12.60;99.90
7502;DHT22;3792;47.740;7.606;2023-03-31T03:59:53;12.70;99.90
7502;DHT22;3792;47.740;7.606;2023-03-31T04:02:20;12.90;99.90
7502;DHT22;3792;47.740;7.606;2023-03-31T04:04:48;13.10;99.90
7502;DHT22;3792;47.740;7.606;2023-03-31T04:07:15;13.20;99.90
7502;DHT22;3792;47.740;7.606;2023-03-31T04:09:42;13.30;99.90
7502;DHT22;3792;47.740;7.606;2023-03-31T04:12:09;13.30;99.90
7502;DHT22;3792;47.740;7.606;2023-03-31T04:14:36;13.30;99.90
7502;DHT22;3792;47.740;7.606;2023-03-31T04:17:03;13.40;99.90
7502;DHT22;3792;47.740;7.606;2023-03-31T04:19:30;13.30;99.90
7502;DHT22;3792;47.740;7.606;2023-03-31T04:21:59;13.30;99.90
7502;DHT22;3792;47.740;7.606;2023-03-31T04:24:27;13.30;99.90
7502;DHT22;3792;47.740;7.606;2023-03-31T04:26:58;13.30;99.90
7502;DHT22;3792;47.740;7.606;2023-03-31T04:29:25;13.30;99.90
7502;DHT22;3792;47.740;7.606;2023-03-31T04:31:53;13.20;99.90
7502;DHT22;3792;47.740;7.606;2023-03-31T04:34:26;13.30;99.90
7502;DHT22;3792;47.740;7.606;2023-03-31T04:37:01;13.20;99.90
7502;DHT22;3792;47.740;7.606;2023-03-31T04:39:29;13.20;99.90
7502;DHT22;3792;47.740;7.606;2023-03-31T04:41:57;13.20;99.90
7502;DHT22;3792;47.740;7.606;2023-03-31T04:44:24;13.20;99.90
7502;DHT22;3792;47.740;7.606;2023-03-31T04:46:51;13.20;99.90
7502;DHT22;3792;47.740;7.606;2023-03-31T04:49:19;13.20;99.90
7502;DHT22;3792;47.740;7.606;2023-03-31T04:51:46;13.10;99.90
7502;DHT22;3792;47.740;7.606;2023-03-31T04:54:14;13.10;99.90
7502;DHT22;3792;47.740;7.606;2023-03-31T04:56:41;13.10;99.90
7502;DHT22;3792;47.740;7.606;2023-03-31T04:59:09;13.20;99.90
7502;DHT22;3792;47.740;7.606;2023-03-31T05:01:36;13.20;99.90
7502;DHT22;3792;47.740;7.606;2023-03-31T05:04:03;13.20;99.90
7502;DHT22;3792;47.740;7.606;2023-03-31T05:06:31;13.20;99.90
7502;DHT22;3792;47.740;7.606;2023-03-31T05:08:58;13.30;99.90
7502;DHT22;3792;47.740;7.606;2023-03-31T05:11:26;13.30;99.90
7502;DHT22;3792;47.740;7.606;2023-03-31T05:13:53;13.20;99.90
7502;DHT22;3792;47.740;7.606;2023-03-31T05:16:20;13.20;99.90
7502;DHT22;3792;47.740;7.606;2023-03-31T05:18:47;13.20;99.90
7502;DHT22;3792;47.740;7.606;2023-03-31T05:21:16;13.10;99.90
7502;DHT22;3792;47.740;7.606;2023-03-31T05:23:44;13.10;99.90
7502;DHT22;3792;47.740;7.606;2023-03-31T05:26:12;13.10;99.90
7502;DHT22;3792;47.740;7.606;2023-03-31T05:28:41;12.90;99.90
7502;DHT22;3792;47.740;7.606;2023-03-31T05:31:11;13.00;99.90
7502;DHT22;3792;47.740;7.606;2023-03-31T05:33:38;13.10;99.90
7502;DHT22;3792;47.740;7.606;2023-03-31T05:36:07;12.90;99.90
7502;DHT22;3792;47.740;7.606;2023-03-31T05:38:34;12.70;99.90
7502;DHT22;3792;47.740;7.606;2023-03-31T05:41:01;12.70;99.90
7502;DHT22;3792;47.740;7.606;2023-03-31T05:43:28;12.60;99.90
7502;DHT22;3792;47.740;7.606;2023-03-31T05:45:57;12.60;99.90
7502;DHT22;3792;47.740;7.606;2023-03-31T05:48:24;12.50;99.90
7502;DHT22;3792;47.740;7.606;2023-03-31T05:50:56;12.50;99.90
7502;DHT22;3792;47.740;7.606;2023-03-31T05:53:24;12.40;99.90
7502;DHT22;3792;47.740;7.606;2023-03-31T05:55:56;12.40;99.90
7502;DHT22;3792;47.740;7.606;2023-03-31T05:58:25;12.40;99.90
7502;DHT22;3792;47.740;7.606;2023-03-31T06:01:05;12.30;99.90
7502;DHT22;3792;47.740;7.606;2023-03-31T06:03:32;12.40;99.90
7502;DHT22;3792;47.740;7.606;2023-03-31T06:06:00;12.40;99.90
7502;DHT22;3792;47.740;7.606;2023-03-31T06:08:28;12.50;99.90
7502;DHT22;3792;47.740;7.606;2023-03-31T06:10:55;12.50;99.90
7502;DHT22;3792;47.740;7.606;2023-03-31T06:13:23;12.50;99.90
7502;DHT22;3792;47.740;7.606;2023-03-31T06:15:54;12.40;99.90
7502;DHT22;3792;47.740;7.606;2023-03-31T06:18:23;12.20;99.90
7502;DHT22;3792;47.740;7.606;2023-03-31T06:20:51;12.10;99.90
7502;DHT22;3792;47.740;7.606;2023-03-31T06:23:18;12.10;99.90
7502;DHT22;3792;47.740;7.606;2023-03-31T06:25:45;12.00;99.90
7502;DHT22;3792;47.740;7.606;2023-03-31T06:28:13;11.90;99.90
7502;DHT22;3792;47.740;7.606;2023-03-31T06:30:40;11.80;99.90
7502;DHT22;3792;47.740;7.606;2023-03-31T06:33:08;11.70;99.90
7502;DHT22;3792;47.740;7.606;2023-03-31T06:35:38;11.70;99.90
7502;DHT22;3792;47.740;7.606;2023-03-31T06:38:06;11.80;99.90
7502;DHT22;3792;47.740;7.606;2023-03-31T06:40:33;11.80;99.90
7502;DHT22;3792;47.740;7.606;2023-03-31T06:43:00;11.80;99.90
7502;DHT22;3792;47.740;7.606;2023-03-31T06:45:27;11.80;99.90
7502;DHT22;3792;47.740;7.606;2023-03-31T06:47:54;11.60;99.90
7502;DHT22;3792;47.740;7.606;2023-03-31T06:50:21;11.60;99.90
7502;DHT22;3792;47.740;7.606;2023-03-31T06:52:49;11.60;99.90
7502;DHT22;3792;47.740;7.606;2023-03-31T06:55:19;11.60;99.90
7502;DHT22;3792;47.740;7.606;2023-03-31T06:57:46;11.60;99.90
7502;DHT22;3792;47.740;7.606;2023-03-31T07:00:14;11.70;99.90
7502;DHT22;3792;47.740;7.606;2023-03-31T07:02:41;11.70;99.90
7502;DHT22;3792;47.740;7.606;2023-03-31T07:05:09;11.80;99.90
7502;DHT22;3792;47.740;7.606;2023-03-31T07:07:36;11.90;99.90
7502;DHT22;3792;47.740;7.606;2023-03-31T07:10:05;11.80;99.90
7502;DHT22;3792;47.740;7.606;2023-03-31T07:12:33;11.70;99.90
7502;DHT22;3792;47.740;7.606;2023-03-31T07:15:00;11.80;99.90
7502;DHT22;3792;47.740;7.606;2023-03-31T07:17:27;11.80;99.90
7502;DHT22;3792;47.740;7.606;2023-03-31T07:19:54;11.90;99.90
7502;DHT22;3792;47.740;7.606;2023-03-31T07:22:22;11.70;99.90
7502;DHT22;3792;47.740;7.606;2023-03-31T07:24:49;11.70;99.90
7502;DHT22;3792;47.740;7.606;2023-03-31T07:27:17;11.70;99.90
7502;DHT22;3792;47.740;7.606;2023-03-31T07:29:45;11.70;99.90
7502;DHT22;3792;47.740;7.606;2023-03-31T07:32:12;11.70;99.90
7502;DHT22;3792;47.740;7.606;2023-03-31T07:34:39;11.80;99.90
7502;DHT22;3792;47.740;7.606;2023-03-31T07:37:06;11.90;99.90
7502;DHT22;3792;47.740;7.606;2023-03-31T07:39:34;11.90;99.90
7502;DHT22;3792;47.740;7.606;2023-03-31T07:42:02;12.10;99.90
7502;DHT22;3792;47.740;7.606;2023-03-31T07:44:32;12.20;99.90
7502;DHT22;3792;47.740;7.606;2023-03-31T07:46:59;12.50;99.90
7502;DHT22;3792;47.740;7.606;2023-03-31T07:49:29;12.80;99.90
7502;DHT22;3792;47.740;7.606;2023-03-31T07:51:56;13.10;99.90
7502;DHT22;3792;47.740;7.606;2023-03-31T07:54:23;13.30;99.90
7502;DHT22;3792;47.740;7.606;2023-03-31T07:56:50;13.60;99.90
7502;DHT22;3792;47.740;7.606;2023-03-31T07:59:17;13.70;99.90
7502;DHT22;3792;47.740;7.606;2023-03-31T08:01:46;13.80;99.90
7502;DHT22;3792;47.740;7.606;2023-03-31T08:04:13;13.90;99.90
7502;DHT22;3792;47.740;7.606;2023-03-31T08:06:40;14.00;99.90
7502;DHT22;3792;47.740;7.606;2023-03-31T08:09:07;14.00;99.90
7502;DHT22;3792;47.740;7.606;2023-03-31T08:11:34;14.20;99.90
7502;DHT22;3792;47.740;7.606;2023-03-31T08:14:01;14.20;99.90
7502;DHT22;3792;47.740;7.606;2023-03-31T08:16:28;14.20;99.90
7502;DHT22;3792;47.740;7.606;2023-03-31T08:18:57;14.20;99.90
7502;DHT22;3792;47.740;7.606;2023-03-31T08:21:24;14.20;99.90
7502;DHT22;3792;47.740;7.606;2023-03-31T08:23:53;14.10;99.90
7502;DHT22;3792;47.740;7.606;2023-03-31T08:26:20;14.00;99.90
7502;DHT22;3792;47.740;7.606;2023-03-31T08:28:49;14.10;99.90
7502;DHT22;3792;47.740;7.606;2023-03-31T08:31:18;14.20;99.90
7502;DHT22;3792;47.740;7.606;2023-03-31T08:33:45;14.50;99.90
7502;DHT22;3792;47.740;7.606;2023-03-31T08:36:13;14.50;99.90
7502;DHT22;3792;47.740;7.606;2023-03-31T08:38:42;14.60;99.90
7502;DHT22;3792;47.740;7.606;2023-03-31T08:41:26;14.70;99.90
7502;DHT22;3792;47.740;7.606;2023-03-31T08:43:57;14.80;99.90
7502;DHT22;3792;47.740;7.606;2023-03-31T08:46:28;14.80;99.90
7502;DHT22;3792;47.740;7.606;2023-03-31T08:48:57;14.60;99.90
7502;DHT22;3792;47.740;7.606;2023-03-31T08:51:30;14.50;99.90
7502;DHT22;3792;47.740;7.606;2023-03-31T08:54:00;14.30;99.90
7502;DHT22;3792;47.740;7.606;2023-03-31T08:56:29;14.30;99.90
7502;DHT22;3792;47.740;7.606;2023-03-31T08:58:59;14.30;99.90
7502;DHT22;3792;47.740;7.606;2023-03-31T09:01:36;14.40;99.90
7502;DHT22;3792;47.740;7.606;2023-03-31T09:04:22;14.50;99.90
7502;DHT22;3792;47.740;7.606;2023-03-31T09:06:58;14.60;99.90
7502;DHT22;3792;47.740;7.606;2023-03-31T09:09:34;14.70;99.90
7502;DHT22;3792;47.740;7.606;2023-03-31T09:12:10;14.60;99.90
7502;DHT22;3792;47.740;7.606;2023-03-31T09:14:41;14.60;99.90
7502;DHT22;3792;47.740;7.606;2023-03-31T09:17:20;14.70;99.90
7502;DHT22;3792;47.740;7.606;2023-03-31T09:19:52;14.70;99.90
7502;DHT22;3792;47.740;7.606;2023-03-31T09:22:24;14.80;99.90
7502;DHT22;3792;47.740;7.606;2023-03-31T09:24:57;14.80;99.90
7502;DHT22;3792;47.740;7.606;2023-03-31T09:27:27;14.70;99.90
7502;DHT22;3792;47.740;7.606;2023-03-31T09:30:00;14.60;99.90
7502;DHT22;3792;47.740;7.606;2023-03-31T09:32:31;14.70;99.90
7502;DHT22;3792;47.740;7.606;2023-03-31T09:35:00;15.00;99.90
7502;DHT22;3792;47.740;7.606;2023-03-31T09:37:31;15.10;99.90
7502;DHT22;3792;47.740;7.606;2023-03-31T09:40:03;15.10;99.80
7502;DHT22;3792;47.740;7.606;2023-03-31T09:42:33;15.00;99.60
7502;DHT22;3792;47.740;7.606;2023-03-31T09:45:00;15.10;99.60
7502;DHT22;3792;47.740;7.606;2023-03-31T09:47:32;15.30;99.60
7502;DHT22;3792;47.740;7.606;2023-03-31T09:50:06;15.50;99.40
7502;DHT22;3792;47.740;7.606;2023-03-31T09:52:38;15.80;99.50
7502;DHT22;3792;47.740;7.606;2023-03-31T09:55:15;16.10;98.20
7502;DHT22;3792;47.740;7.606;2023-03-31T09:57:44;16.10;98.90
7502;DHT22;3792;47.740;7.606;2023-03-31T10:00:15;16.20;99.20
7502;DHT22;3792;47.740;7.606;2023-03-31T10:02:43;16.30;97.80
7502;DHT22;3792;47.740;7.606;2023-03-31T10:05:35;16.30;97.00
7502;DHT22;3792;47.740;7.606;2023-03-31T10:08:28;16.20;97.00
7502;DHT22;3792;47.740;7.606;2023-03-31T10:11:05;16.30;96.50
7502;DHT22;3792;47.740;7.606;2023-03-31T10:13:40;16.30;95.70
7502;DHT22;3792;47.740;7.606;2023-03-31T10:16:12;16.20;95.70
7502;DHT22;3792;47.740;7.606;2023-03-31T10:18:40;16.10;96.50
7502;DHT22;3792;47.740;7.606;2023-03-31T10:21:20;16.00;96.80
7502;DHT22;3792;47.740;7.606;2023-03-31T10:23:49;15.90;97.10
7502;DHT22;3792;47.740;7.606;2023-03-31T10:26:19;15.70;97.50
7502;DHT22;3792;47.740;7.606;2023-03-31T10:28:48;15.30;98.50
7502;DHT22;3792;47.740;7.606;2023-03-31T10:31:17;15.00;99.00
7502;DHT22;3792;47.740;7.606;2023-03-31T10:33:47;14.90;98.90
7502;DHT22;3792;47.740;7.606;2023-03-31T10:36:19;15.20;99.20
7502;DHT22;3792;47.740;7.606;2023-03-31T10:38:49;15.50;99.30
7502;DHT22;3792;47.740;7.606;2023-03-31T10:41:19;15.80;99.30
7502;DHT22;3792;47.740;7.606;2023-03-31T10:43:49;15.80;98.70
7502;DHT22;3792;47.740;7.606;2023-03-31T10:46:17;15.70;98.30
7502;DHT22;3792;47.740;7.606;2023-03-31T10:48:44;15.50;98.50
7502;DHT22;3792;47.740;7.606;2023-03-31T10:51:15;15.10;99.90
7502;DHT22;3792;47.740;7.606;2023-03-31T10:53:44;14.70;99.90
7502;DHT22;3792;47.740;7.606;2023-03-31T10:56:35;14.80;99.90
7502;DHT22;3792;47.740;7.606;2023-03-31T10:59:23;15.10;99.90
7502;DHT22;3792;47.740;7.606;2023-03-31T11:02:13;15.50;99.90
7502;DHT22;3792;47.740;7.606;2023-03-31T11:04:51;16.10;99.90
7502;DHT22;3792;47.740;7.606;2023-03-31T11:07:35;16.10;99.90
7502;DHT22;3792;47.740;7.606;2023-03-31T11:13:09;16.50;99.90
7502;DHT22;3792;47.740;7.606;2023-03-31T11:15:45;16.60;99.90
7502;DHT22;3792;47.740;7.606;2023-03-31T11:18:40;16.60;99.40
7502;DHT22;3792;47.740;7.606;2023-03-31T11:21:18;16.30;99.20
7502;DHT22;3792;47.740;7.606;2023-03-31T11:23:53;16.00;99.90
7502;DHT22;3792;47.740;7.606;2023-03-31T11:26:30;15.90;99.90
7502;DHT22;3792;47.740;7.606;2023-03-31T11:29:10;15.90;99.90
7502;DHT22;3792;47.740;7.606;2023-03-31T11:31:49;15.80;99.90
7502;DHT22;3792;47.740;7.606;2023-03-31T11:34:29;15.50;99.90
7502;DHT22;3792;47.740;7.606;2023-03-31T11:40:05;13.70;99.90
7502;DHT22;3792;47.740;7.606;2023-03-31T11:42:46;12.70;99.90
7502;DHT22;3792;47.740;7.606;2023-03-31T11:45:18;12.10;99.90
7502;DHT22;3792;47.740;7.606;2023-03-31T11:47:49;11.80;99.90
7502;DHT22;3792;47.740;7.606;2023-03-31T11:50:20;11.80;99.90
7502;DHT22;3792;47.740;7.606;2023-03-31T11:52:55;11.80;99.90
7502;DHT22;3792;47.740;7.606;2023-03-31T11:55:25;12.00;99.90
7502;DHT22;3792;47.740;7.606;2023-03-31T11:57:58;12.80;99.90
7502;DHT22;3792;47.740;7.606;2023-03-31T12:00:30;13.60;99.90
7502;DHT22;3792;47.740;7.606;2023-03-31T12:03:03;14.10;99.90
7502;DHT22;3792;47.740;7.606;2023-03-31T12:08:06;15.00;99.90
7502;DHT22;3792;47.740;7.606;2023-03-31T12:10:35;15.40;99.90
7502;DHT22;3792;47.740;7.606;2023-03-31T12:13:13;15.70;99.90
7502;DHT22;3792;47.740;7.606;2023-03-31T12:15:47;16.40;99.90
7502;DHT22;3792;47.740;7.606;2023-03-31T12:18:20;16.70;99.90
7502;DHT22;3792;47.740;7.606;2023-03-31T12:20:51;17.00;99.90
7502;DHT22;3792;47.740;7.606;2023-03-31T12:23:22;17.20;98.70
7502;DHT22;3792;47.740;7.606;2023-03-31T12:25:52;17.40;98.50
7502;DHT22;3792;47.740;7.606;2023-03-31T12:28:21;17.60;98.00
7502;DHT22;3792;47.740;7.606;2023-03-31T12:30:50;17.50;97.80
7502;DHT22;3792;47.740;7.606;2023-03-31T12:33:20;17.50;96.90
7502;DHT22;3792;47.740;7.606;2023-03-31T12:35:58;17.60;98.10
7502;DHT22;3792;47.740;7.606;2023-03-31T12:38:36;18.00;97.20
7502;DHT22;3792;47.740;7.606;2023-03-31T12:41:13;17.70;97.10
7502;DHT22;3792;47.740;7.606;2023-03-31T12:44:02;17.50;96.50
7502;DHT22;3792;47.740;7.606;2023-03-31T12:46:49;17.00;97.40
7502;DHT22;3792;47.740;7.606;2023-03-31T12:49:35;16.80;96.90
7502;DHT22;3792;47.740;7.606;2023-03-31T12:52:11;16.50;98.10
7502;DHT22;3792;47.740;7.606;2023-03-31T12:55:06;16.30;98.80
7502;DHT22;3792;47.740;7.606;2023-03-31T12:57:35;16.50;99.10
7502;DHT22;3792;47.740;7.606;2023-03-31T13:00:22;16.50;98.10
7502;DHT22;3792;47.740;7.606;2023-03-31T13:05:58;16.70;97.80
7502;DHT22;3792;47.740;7.606;2023-03-31T13:08:59;16.60;97.10
7502;DHT22;3792;47.740;7.606;2023-03-31T13:11:37;16.30;96.60
7502;DHT22;3792;47.740;7.606;2023-03-31T13:14:06;16.20;97.20
7502;DHT22;3792;47.740;7.606;2023-03-31T13:16:38;16.00;97.10
7502;DHT22;3792;47.740;7.606;2023-03-31T13:19:08;15.80;97.40
7502;DHT22;3792;47.740;7.606;2023-03-31T13:21:51;15.70;96.90
7502;DHT22;3792;47.740;7.606;2023-03-31T13:24:21;15.60;97.40
7502;DHT22;3792;47.740;7.606;2023-03-31T13:26:49;15.40;98.10
7502;DHT22;3792;47.740;7.606;2023-03-31T13:29:23;15.00;98.60
7502;DHT22;3792;47.740;7.606;2023-03-31T13:32:18;13.60;99.90
7502;DHT22;3792;47.740;7.606;2023-03-31T13:34:52;12.90;99.90
7502;DHT22;3792;47.740;7.606;2023-03-31T13:37:44;12.50;99.90
7502;DHT22;3792;47.740;7.606;2023-03-31T13:40:31;12.40;99.90
7502;DHT22;3792;47.740;7.606;2023-03-31T13:49:37;12.40;99.90
7502;DHT22;3792;47.740;7.606;2023-03-31T13:52:10;12.70;99.90
7502;DHT22;3792;47.740;7.606;2023-03-31T13:55:06;13.10;99.90
7502;DHT22;3792;47.740;7.606;2023-03-31T14:01:00;13.50;99.90
7502;DHT22;3792;47.740;7.606;2023-03-31T14:03:37;13.50;99.90
7502;DHT22;3792;47.740;7.606;2023-03-31T14:06:19;13.40;99.90
7502;DHT22;3792;47.740;7.606;2023-03-31T14:08:53;13.30;99.90
7502;DHT22;3792;47.740;7.606;2023-03-31T14:11:24;12.70;99.90
7502;DHT22;3792;47.740;7.606;2023-03-31T14:13:59;12.00;99.90
7502;DHT22;3792;47.740;7.606;2023-03-31T14:16:27;11.50;99.90
7502;DHT22;3792;47.740;7.606;2023-03-31T14:19:04;11.40;99.90
7502;DHT22;3792;47.740;7.606;2023-03-31T14:21:36;11.10;99.90
7502;DHT22;3792;47.740;7.606;2023-03-31T14:24:14;11.10;99.90
7502;DHT22;3792;47.740;7.606;2023-03-31T14:26:53;11.00;99.90
7502;DHT22;3792;47.740;7.606;2023-03-31T14:29:28;11.10;99.90
7502;DHT22;3792;47.740;7.606;2023-03-31T14:32:02;11.00;99.90
7502;DHT22;3792;47.740;7.606;2023-03-31T14:34:46;10.90;99.90
7502;DHT22;3792;47.740;7.606;2023-03-31T14:37:17;11.20;99.90
7502;DHT22;3792;47.740;7.606;2023-03-31T14:39:49;11.70;99.90
7502;DHT22;3792;47.740;7.606;2023-03-31T14:42:19;12.40;99.90
7502;DHT22;3792;47.740;7.606;2023-03-31T14:44:48;13.00;99.90
7502;DHT22;3792;47.740;7.606;2023-03-31T14:47:20;13.50;99.90
7502;DHT22;3792;47.740;7.606;2023-03-31T14:49:47;14.10;99.90
7502;DHT22;3792;47.740;7.606;2023-03-31T14:52:29;14.60;99.90
7502;DHT22;3792;47.740;7.606;2023-03-31T14:54:58;15.00;99.90
7502;DHT22;3792;47.740;7.606;2023-03-31T14:57:30;15.10;99.90
7502;DHT22;3792;47.740;7.606;2023-03-31T15:00:02;15.00;99.90
7502;DHT22;3792;47.740;7.606;2023-03-31T15:02:35;15.00;99.90
7502;DHT22;3792;47.740;7.606;2023-03-31T15:05:05;14.70;99.90
7502;DHT22;3792;47.740;7.606;2023-03-31T15:07:34;14.80;99.90
7502;DHT22;3792;47.740;7.606;2023-03-31T15:10:04;15.10;99.90
7502;DHT22;3792;47.740;7.606;2023-03-31T15:12:39;15.30;99.90
7502;DHT22;3792;47.740;7.606;2023-03-31T15:15:11;15.10;99.90
7502;DHT22;3792;47.740;7.606;2023-03-31T15:17:41;14.80;99.90
7502;DHT22;3792;47.740;7.606;2023-03-31T15:20:30;15.00;99.90
7502;DHT22;3792;47.740;7.606;2023-03-31T15:22:58;15.70;99.90
7502;DHT22;3792;47.740;7.606;2023-03-31T15:25:31;16.00;99.90
7502;DHT22;3792;47.740;7.606;2023-03-31T15:28:02;16.00;99.90
7502;DHT22;3792;47.740;7.606;2023-03-31T15:30:32;16.00;99.90
7502;DHT22;3792;47.740;7.606;2023-03-31T15:33:00;16.00;99.90
7502;DHT22;3792;47.740;7.606;2023-03-31T15:35:30;16.10;99.90
7502;DHT22;3792;47.740;7.606;2023-03-31T15:37:58;16.20;99.90
7502;DHT22;3792;47.740;7.606;2023-03-31T15:40:30;15.80;99.90
7502;DHT22;3792;47.740;7.606;2023-03-31T15:43:04;15.70;99.20
7502;DHT22;3792;47.740;7.606;2023-03-31T15:45:37;15.30;99.90
7502;DHT22;3792;47.740;7.606;2023-03-31T15:48:20;15.20;99.90
7502;DHT22;3792;47.740;7.606;2023-03-31T15:50:47;15.00;99.90
7502;DHT22;3792;47.740;7.606;2023-03-31T15:53:26;14.70;99.30
7502;DHT22;3792;47.740;7.606;2023-03-31T15:55:57;14.60;99.90
7502;DHT22;3792;47.740;7.606;2023-03-31T15:58:47;14.50;99.90
7502;DHT22;3792;47.740;7.606;2023-03-31T16:01:18;14.40;99.90
7502;DHT22;3792;47.740;7.606;2023-03-31T16:03:46;14.40;99.90
7502;DHT22;3792;47.740;7.606;2023-03-31T16:06:21;14.30;99.90
7502;DHT22;3792;47.740;7.606;2023-03-31T16:08:52;14.20;99.90
7502;DHT22;3792;47.740;7.606;2023-03-31T16:11:26;13.90;99.90
7502;DHT22;3792;47.740;7.606;2023-03-31T16:14:04;13.80;99.90
7502;DHT22;3792;47.740;7.606;2023-03-31T16:16:34;13.70;99.90
7502;DHT22;3792;47.740;7.606;2023-03-31T16:19:03;13.60;99.90
7502;DHT22;3792;47.740;7.606;2023-03-31T16:21:36;13.60;99.90
7502;DHT22;3792;47.740;7.606;2023-03-31T16:24:05;13.60;99.90
7502;DHT22;3792;47.740;7.606;2023-03-31T16:26:35;13.50;99.90
7502;DHT22;3792;47.740;7.606;2023-03-31T16:29:04;13.70;99.90
7502;DHT22;3792;47.740;7.606;2023-03-31T16:31:34;13.70;99.90
7502;DHT22;3792;47.740;7.606;2023-03-31T16:34:02;13.50;99.90
7502;DHT22;3792;47.740;7.606;2023-03-31T16:36:29;13.50;99.90
7502;DHT22;3792;47.740;7.606;2023-03-31T16:38:56;13.50;99.90
7502;DHT22;3792;47.740;7.606;2023-03-31T16:41:26;13.60;99.90
7502;DHT22;3792;47.740;7.606;2023-03-31T16:43:55;13.70;99.90
7502;DHT22;3792;47.740;7.606;2023-03-31T16:46:23;13.80;99.90
7502;DHT22;3792;47.740;7.606;2023-03-31T16:48:50;13.90;99.90
7502;DHT22;3792;47.740;7.606;2023-03-31T16:51:17;13.90;99.90
7502;DHT22;3792;47.740;7.606;2023-03-31T16:53:45;13.70;99.90
7502;DHT22;3792;47.740;7.606;2023-03-31T16:56:13;13.50;99.90
7502;DHT22;3792;47.740;7.606;2023-03-31T16:58:41;13.30;99.90